Time;durP1;ratioP1;P1;durP2;ratioP2;P2;SDS_P1;SDS_P2;PMS_P1;PMS_P2;Temp;Humidity;BMP_temperature;BMP_pressure;BME280_temperature;BME280_humidity;BME280_pressure;Samples;Min_cycle;Max_cycle;Signal;HPM_P1;HPM_P2
2022/10/09 00:00:39;;;;;;;12.93;2.85;;;9.40;99.90;;;;;;5113352;28;20203;-55
2022/10/09 00:03:05;;;;;;;14.02;2.47;;;9.40;99.90;;;;;;5111873;28;20195;-54
2022/10/09 00:05:31;;;;;;;7.30;2.88;;;9.30;99.90;;;;;;5112905;28;20187;-54
2022/10/09 00:07:57;;;;;;;17.95;3.50;;;9.30;99.90;;;;;;5113492;28;20200;-55
2022/10/09 00:10:22;;;;;;;9.18;3.10;;;9.30;99.90;;;;;;5113112;28;20165;-55
2022/10/09 00:12:48;;;;;;;20.30;3.55;;;9.30;99.90;;;;;;5112843;28;20168;-55
2022/10/09 00:15:14;;;;;;;11.05;2.72;;;9.30;99.90;;;;;;5112860;28;20556;-55
2022/10/09 00:17:39;;;;;;;14.73;3.13;;;9.30;99.90;;;;;;5113046;28;20168;-55
2022/10/09 00:20:06;;;;;;;18.25;3.72;;;9.20;99.90;;;;;;5112185;28;20168;-55
2022/10/09 00:22:31;;;;;;;14.57;3.42;;;9.20;99.90;;;;;;5113043;28;20196;-55
2022/10/09 00:24:57;;;;;;;16.33;3.05;;;9.20;99.90;;;;;;5113196;28;20526;-55
2022/10/09 00:27:23;;;;;;;13.35;3.20;;;9.20;99.90;;;;;;5112811;28;20201;-55
2022/10/09 00:29:49;;;;;;;14.52;3.28;;;9.10;99.90;;;;;;5111911;28;20682;-55
2022/10/09 00:32:15;;;;;;;12.43;3.45;;;9.10;99.90;;;;;;5112663;28;20176;-55
2022/10/09 00:34:41;;;;;;;15.02;4.47;;;9.10;99.90;;;;;;5112671;28;20157;-55
2022/10/09 00:37:07;;;;;;;11.00;3.45;;;9.10;99.90;;;;;;5112653;28;20169;-55
2022/10/09 00:39:32;;;;;;;14.52;3.03;;;9.00;99.90;;;;;;5112859;28;20591;-55
2022/10/09 00:41:58;;;;;;;11.38;2.90;;;8.90;99.90;;;;;;5112936;28;20169;-55
2022/10/09 00:44:51;;;;;;;16.10;3.38;;;8.90;99.90;;;;;;5112502;28;20157;-54
2022/10/09 00:47:30;;;;;;;17.13;3.72;;;8.90;99.90;;;;;;5112396;28;20219;-55
2022/10/09 00:50:21;;;;;;;13.32;4.05;;;8.90;99.90;;;;;;5112842;28;20648;-55
2022/10/09 00:52:51;;;;;;;11.65;3.80;;;8.90;99.90;;;;;;5112367;28;20196;-55
2022/10/09 00:55:18;;;;;;;9.25;3.30;;;8.90;99.90;;;;;;5112363;28;20216;-55
2022/10/09 00:57:45;;;;;;;10.73;3.95;;;8.90;99.90;;;;;;5112322;28;20739;-55
2022/10/09 01:00:12;;;;;;;10.73;4.32;;;8.90;99.90;;;;;;5112424;28;20161;-55
2022/10/09 01:02:38;;;;;;;11.27;3.83;;;8.80;99.90;;;;;;5112343;28;20210;-55
2022/10/09 01:05:05;;;;;;;18.48;4.05;;;8.80;99.90;;;;;;5112510;28;20171;-56
2022/10/09 01:07:58;;;;;;;15.32;4.07;;;8.80;99.90;;;;;;5112246;28;20603;-55
2022/10/09 01:10:42;;;;;;;12.82;3.95;;;8.70;99.90;;;;;;5112536;28;20194;-55
2022/10/09 01:13:27;;;;;;;10.88;3.47;;;8.70;99.90;;;;;;5112142;28;20214;-55
2022/10/09 01:16:05;;;;;;;16.08;4.35;;;8.70;99.90;;;;;;5112428;28;20194;-55
2022/10/09 01:18:54;;;;;;;9.77;3.33;;;8.60;99.90;;;;;;5112125;28;20202;-55
2022/10/09 01:22:07;;;;;;;8.63;3.28;;;8.60;99.90;;;;;;5112084;28;20156;-55
2022/10/09 01:24:38;;;;;;;8.38;3.30;;;8.60;99.90;;;;;;5049555;28;20174;-55
2022/10/09 01:27:17;;;;;;;7.30;3.80;;;8.50;99.90;;;;;;5101269;28;20212;-55
2022/10/09 01:29:47;;;;;;;7.05;3.05;;;8.50;99.90;;;;;;5112150;28;20625;-55
2022/10/09 01:32:18;;;;;;;12.88;4.05;;;8.60;99.90;;;;;;5112085;28;20188;-55
2022/10/09 01:34:46;;;;;;;4.57;2.78;;;8.60;99.90;;;;;;5112027;28;20610;-55
2022/10/09 01:37:13;;;;;;;9.07;3.47;;;8.60;99.90;;;;;;5112034;28;20169;-55
2022/10/09 01:39:41;;;;;;;10.65;3.42;;;8.60;99.90;;;;;;5111951;28;20645;-55
2022/10/09 01:42:08;;;;;;;12.18;3.53;;;8.60;99.90;;;;;;5116136;28;20176;-55
2022/10/09 01:44:34;;;;;;;8.43;3.38;;;8.60;99.90;;;;;;5116027;28;20165;-54
2022/10/09 01:47:00;;;;;;;7.90;3.13;;;8.50;99.90;;;;;;5115818;28;20305;-55
2022/10/09 01:49:44;;;;;;;20.42;3.50;;;8.50;99.90;;;;;;5116217;28;20241;-55
2022/10/09 01:52:35;;;;;;;8.38;2.85;;;8.50;99.90;;;;;;5115798;28;20164;-54
2022/10/09 01:55:26;;;;;;;8.30;4.05;;;8.50;99.90;;;;;;5115550;28;20677;-55
2022/10/09 01:58:03;;;;;;;15.02;5.15;;;8.50;99.90;;;;;;5115702;28;20523;-55
2022/10/09 02:00:33;;;;;;;19.80;3.40;;;8.50;99.90;;;;;;5115702;28;20163;-55
2022/10/09 02:03:00;;;;;;;15.48;4.25;;;8.50;99.90;;;;;;5115583;28;20168;-54
2022/10/09 02:05:29;;;;;;;8.15;3.88;;;8.30;99.90;;;;;;5115923;28;20535;-54
2022/10/09 02:07:55;;;;;;;8.30;3.78;;;8.30;99.90;;;;;;5115926;28;20206;-56
2022/10/09 02:10:22;;;;;;;8.75;4.25;;;8.20;99.90;;;;;;5115488;28;20192;-54
2022/10/09 02:12:56;;;;;;;8.35;3.90;;;8.20;99.90;;;;;;5115417;28;20168;-55
2022/10/09 02:15:30;;;;;;;10.25;3.83;;;8.20;99.90;;;;;;5115334;27;20174;-55
2022/10/09 02:18:04;;;;;;;17.65;3.92;;;8.20;99.90;;;;;;5115629;28;20502;-54
2022/10/09 02:20:34;;;;;;;9.35;3.75;;;8.20;99.90;;;;;;5115223;28;20180;-54
2022/10/09 02:23:03;;;;;;;7.88;3.40;;;8.20;99.90;;;;;;5115255;28;20273;-54
2022/10/09 02:25:29;;;;;;;6.32;3.65;;;8.20;99.90;;;;;;5115157;28;20570;-54
2022/10/09 02:27:54;;;;;;;7.70;3.30;;;8.20;99.90;;;;;;5115409;28;20262;-55
2022/10/09 02:30:22;;;;;;;7.72;2.95;;;8.30;99.90;;;;;;5115094;27;20164;-54
2022/10/09 02:32:52;;;;;;;8.18;3.13;;;8.20;99.90;;;;;;5115014;28;20168;-54
2022/10/09 02:35:18;;;;;;;5.32;3.17;;;8.20;99.90;;;;;;5114993;28;20195;-55
2022/10/09 02:37:43;;;;;;;7.80;2.88;;;8.20;99.90;;;;;;5114969;28;20168;-55
2022/10/09 02:40:10;;;;;;;6.47;3.45;;;8.10;99.90;;;;;;5114938;28;20251;-54
2022/10/09 02:42:35;;;;;;;6.30;2.90;;;8.10;99.90;;;;;;5114868;28;20164;-55
2022/10/09 02:45:01;;;;;;;8.13;3.40;;;8.00;99.90;;;;;;5114855;27;20176;-55
2022/10/09 02:47:27;;;;;;;5.57;2.58;;;7.90;99.90;;;;;;5115338;28;20208;-55
2022/10/09 02:49:52;;;;;;;11.35;3.35;;;7.90;99.90;;;;;;5114702;27;20175;-56
2022/10/09 02:52:18;;;;;;;5.32;3.13;;;10.80;99.90;;;;;;5119216;27;20172;-55
2022/10/09 02:54:43;;;;;;;7.60;3.30;;;7.80;99.90;;;;;;5134955;27;20160;-55
2022/10/09 02:57:09;;;;;;;5.28;3.00;;;7.80;99.90;;;;;;5135117;27;20221;-55
2022/10/09 02:59:35;;;;;;;7.70;2.97;;;7.80;99.90;;;;;;5135049;27;20175;-55
2022/10/09 03:02:01;;;;;;;4.65;2.90;;;7.80;99.90;;;;;;5135054;27;20160;-55
2022/10/09 03:04:26;;;;;;;6.35;3.20;;;7.80;99.90;;;;;;5135350;27;20195;-54
2022/10/09 03:06:52;;;;;;;6.97;3.20;;;7.80;99.90;;;;;;5134892;27;20238;-54
2022/10/09 03:09:17;;;;;;;8.57;3.08;;;7.80;99.90;;;;;;5134783;27;20164;-55
2022/10/09 03:11:43;;;;;;;5.15;2.92;;;7.80;99.90;;;;;;5134874;27;20171;-54
2022/10/09 03:14:09;;;;;;;6.40;3.35;;;7.70;99.90;;;;;;5133536;27;20228;-55
2022/10/09 03:16:34;;;;;;;7.22;3.13;;;7.70;99.90;;;;;;5134744;27;20167;-55
2022/10/09 03:19:00;;;;;;;8.43;3.05;;;7.80;99.90;;;;;;5135329;27;20233;-55
2022/10/09 03:21:27;;;;;;;7.60;3.30;;;7.70;99.90;;;;;;5135241;27;20171;-54
2022/10/09 03:23:53;;;;;;;3.70;2.70;;;7.60;99.90;;;;;;5134833;27;20179;-55
2022/10/09 03:26:21;;;;;;;6.25;3.28;;;7.60;99.90;;;;;;5134518;27;20152;-54
2022/10/09 03:28:49;;;;;;;4.82;2.67;;;7.60;99.90;;;;;;5134470;27;20301;-55
2022/10/09 03:31:16;;;;;;;6.50;2.88;;;7.70;99.90;;;;;;5133596;27;20210;-54
2022/10/09 03:33:42;;;;;;;7.80;3.30;;;7.70;99.90;;;;;;5133161;27;20266;-55
2022/10/09 03:36:09;;;;;;;7.53;3.90;;;7.70;99.90;;;;;;5134389;27;20239;-55
2022/10/09 03:38:35;;;;;;;10.07;4.15;;;7.70;99.90;;;;;;5134373;27;20156;-54
2022/10/09 03:41:02;;;;;;;9.02;4.05;;;7.70;99.90;;;;;;5134151;27;20167;-54
2022/10/09 03:43:27;;;;;;;8.00;3.47;;;7.70;99.90;;;;;;5133308;27;20530;-55
2022/10/09 03:45:53;;;;;;;10.45;3.35;;;7.70;99.90;;;;;;5134507;27;20160;-55
2022/10/09 03:48:19;;;;;;;9.88;3.03;;;7.70;99.90;;;;;;5133982;27;20563;-55
2022/10/09 03:50:45;;;;;;;4.53;3.00;;;7.70;99.90;;;;;;5134058;27;20638;-55
2022/10/09 03:53:12;;;;;;;7.13;3.13;;;7.70;99.90;;;;;;5134099;27;20172;-54
2022/10/09 03:55:38;;;;;;;10.82;3.60;;;7.60;99.90;;;;;;5133997;27;20219;-55
2022/10/09 03:58:04;;;;;;;5.45;3.40;;;7.60;99.90;;;;;;5133893;27;20247;-55
2022/10/09 04:00:29;;;;;;;6.80;2.67;;;7.70;99.90;;;;;;5133858;27;20207;-56
2022/10/09 04:02:55;;;;;;;4.35;2.40;;;7.60;99.90;;;;;;5134273;27;20602;-55
2022/10/09 04:05:21;;;;;;;4.28;2.88;;;7.50;99.90;;;;;;5133823;27;20646;-54
2022/10/09 04:07:46;;;;;;;7.00;3.45;;;7.50;99.90;;;;;;5133613;27;20231;-54
2022/10/09 04:10:12;;;;;;;4.72;2.80;;;7.40;99.90;;;;;;5133915;27;20209;-55
2022/10/09 04:12:38;;;;;;;5.43;2.95;;;7.40;99.90;;;;;;5133698;27;20621;-54
2022/10/09 04:15:04;;;;;;;5.35;3.40;;;7.40;99.90;;;;;;5133654;27;20164;-54
2022/10/09 04:17:30;;;;;;;6.75;2.80;;;7.40;99.90;;;;;;5133840;27;20190;-56
2022/10/09 04:19:55;;;;;;;7.03;3.35;;;7.40;99.90;;;;;;5133878;27;20621;-54
2022/10/09 04:22:21;;;;;;;5.60;2.78;;;7.30;99.90;;;;;;5133428;27;20195;-56
2022/10/09 04:24:46;;;;;;;5.93;3.05;;;7.30;99.90;;;;;;5133383;27;20167;-55
2022/10/09 04:27:12;;;;;;;6.80;2.95;;;7.40;99.90;;;;;;5133309;27;20690;-55
2022/10/09 04:29:38;;;;;;;7.47;3.00;;;7.30;99.90;;;;;;5133367;27;20246;-55
2022/10/09 04:32:04;;;;;;;6.93;3.35;;;7.30;99.90;;;;;;5133353;27;20247;-54
2022/10/09 04:34:29;;;;;;;4.78;3.00;;;7.30;99.90;;;;;;5133379;27;20202;-54
2022/10/09 04:36:55;;;;;;;4.88;2.90;;;7.40;99.90;;;;;;5133614;27;20199;-54
2022/10/09 04:39:21;;;;;;;6.30;2.83;;;7.30;99.90;;;;;;5133283;27;20217;-54
2022/10/09 04:41:46;;;;;;;8.07;3.10;;;7.30;99.90;;;;;;5133152;27;20213;-55
2022/10/09 04:44:12;;;;;;;10.10;5.10;;;7.30;99.90;;;;;;5133145;27;20160;-54
2022/10/09 04:46:37;;;;;;;8.93;3.95;;;7.30;99.90;;;;;;5133022;27;20223;-54
2022/10/09 04:49:03;;;;;;;4.75;3.38;;;7.30;99.90;;;;;;5133039;27;20627;-55
2022/10/09 04:51:29;;;;;;;6.35;3.38;;;7.30;99.90;;;;;;5133002;27;20308;-54
2022/10/09 04:53:55;;;;;;;7.53;4.50;;;7.30;99.90;;;;;;5133403;27;20709;-55
2022/10/09 04:56:22;;;;;;;9.07;3.88;;;7.30;99.90;;;;;;5132789;27;20244;-54
2022/10/09 04:58:48;;;;;;;7.53;4.53;;;7.30;99.90;;;;;;5132903;27;20710;-54
2022/10/09 05:01:17;;;;;;;9.27;3.95;;;7.20;99.90;;;;;;5133142;27;20175;-54
2022/10/09 05:03:43;;;;;;;9.27;3.88;;;7.20;99.90;;;;;;5132846;27;20243;-55
2022/10/09 05:06:11;;;;;;;10.20;3.70;;;7.10;99.90;;;;;;5132742;27;20200;-54
2022/10/09 05:08:36;;;;;;;6.30;3.65;;;7.20;99.90;;;;;;5132878;27;20168;-54
2022/10/09 05:11:06;;;;;;;11.85;3.78;;;7.20;99.90;;;;;;5132847;27;20213;-54
2022/10/09 05:13:36;;;;;;;10.30;4.85;;;7.10;99.90;;;;;;5132944;27;20175;-54
2022/10/09 05:16:04;;;;;;;8.60;4.30;;;7.10;99.90;;;;;;5137989;27;20529;-55
2022/10/09 05:18:30;;;;;;;12.32;6.47;;;7.10;99.90;;;;;;5139638;27;20538;-54
2022/10/09 05:20:55;;;;;;;12.05;6.57;;;7.10;99.90;;;;;;5138813;27;20174;-54
2022/10/09 05:23:21;;;;;;;9.10;5.65;;;7.10;99.90;;;;;;5139576;27;20504;-54
2022/10/09 05:25:54;;;;;;;12.32;5.32;;;7.00;99.90;;;;;;5139614;27;20377;-54
2022/10/09 05:28:20;;;;;;;10.40;4.75;;;7.00;99.90;;;;;;5139383;27;20278;-55
2022/10/09 05:30:45;;;;;;;13.07;5.28;;;7.00;99.90;;;;;;5139510;27;20692;-54
2022/10/09 05:33:11;;;;;;;10.77;5.53;;;7.00;99.90;;;;;;5139412;27;20528;-55
2022/10/09 05:35:36;;;;;;;10.45;4.97;;;7.10;99.90;;;;;;5139647;27;20156;-54
2022/10/09 05:38:02;;;;;;;7.75;4.90;;;7.10;99.90;;;;;;5139444;27;20652;-54
2022/10/09 05:40:27;;;;;;;10.65;6.47;;;7.10;99.90;;;;;;5139310;27;20508;-54
2022/10/09 05:42:53;;;;;;;7.20;5.03;;;7.10;99.90;;;;;;5139726;27;20658;-55
2022/10/09 05:45:18;;;;;;;6.75;4.90;;;7.10;99.90;;;;;;5139357;27;20188;-55
2022/10/09 05:47:45;;;;;;;10.93;6.15;;;7.10;99.90;;;;;;5139226;27;20195;-54
2022/10/09 05:50:10;;;;;;;12.65;6.20;;;7.10;99.90;;;;;;5139196;27;20576;-55
2022/10/09 05:52:38;;;;;;;12.32;6.60;;;7.10;99.90;;;;;;5139266;27;20172;-55
2022/10/09 05:55:05;;;;;;;10.15;6.88;;;7.20;99.90;;;;;;5139242;27;20295;-55
2022/10/09 05:57:30;;;;;;;12.00;6.32;;;7.20;99.90;;;;;;5139457;27;20252;-56
2022/10/09 05:59:56;;;;;;;8.63;6.00;;;7.20;99.90;;;;;;5139555;27;20187;-54
2022/10/09 06:02:21;;;;;;;10.75;5.97;;;7.10;99.90;;;;;;5139173;27;20566;-55
2022/10/09 06:04:47;;;;;;;11.13;6.50;;;7.20;99.90;;;;;;5139146;27;20160;-54
2022/10/09 06:07:12;;;;;;;8.45;6.20;;;7.10;99.90;;;;;;5139402;27;20246;-55
2022/10/09 06:09:38;;;;;;;8.23;4.90;;;7.20;99.90;;;;;;5139184;27;20224;-54
2022/10/09 06:12:04;;;;;;;11.98;5.30;;;7.20;99.90;;;;;;5139295;27;20247;-55
2022/10/09 06:14:29;;;;;;;10.00;5.45;;;7.20;99.90;;;;;;5139129;27;20199;-55
2022/10/09 06:16:57;;;;;;;10.30;6.53;;;7.20;99.90;;;;;;5139364;27;20168;-54
2022/10/09 06:19:23;;;;;;;10.25;6.05;;;7.20;99.90;;;;;;5139348;27;20176;-55
2022/10/09 06:21:49;;;;;;;14.57;7.68;;;7.20;99.90;;;;;;5139123;27;20727;-56
2022/10/09 06:24:21;;;;;;;8.57;6.43;;;7.20;99.90;;;;;;5137644;27;20195;-55
2022/10/09 06:26:47;;;;;;;12.82;9.30;;;7.30;99.90;;;;;;5137358;27;20236;-55
2022/10/09 06:29:12;;;;;;;12.77;7.78;;;7.30;99.90;;;;;;5135708;27;20202;-55
2022/10/09 06:31:38;;;;;;;12.15;6.05;;;7.30;99.90;;;;;;5134310;27;20172;-56
2022/10/09 06:34:04;;;;;;;9.15;5.78;;;7.30;99.90;;;;;;5135638;27;20521;-56
2022/10/09 06:36:32;;;;;;;9.88;6.00;;;7.30;99.90;;;;;;5135475;27;20659;-56
2022/10/09 06:38:59;;;;;;;12.43;5.35;;;7.30;99.90;;;;;;5134266;27;20174;-55
2022/10/09 06:41:26;;;;;;;14.00;5.63;;;7.40;99.90;;;;;;5135877;27;20164;-55
2022/10/09 06:44:00;;;;;;;6.80;5.57;;;7.40;99.90;;;;;;5135787;27;20170;-56
2022/10/09 06:46:29;;;;;;;11.05;4.88;;;7.50;99.90;;;;;;5135723;27;20702;-56
2022/10/09 06:48:54;;;;;;;9.50;5.82;;;7.50;99.90;;;;;;5135632;27;20600;-56
2022/10/09 06:51:22;;;;;;;9.10;5.75;;;7.50;99.90;;;;;;5135259;27;20164;-56
2022/10/09 06:53:50;;;;;;;10.85;5.93;;;7.50;99.90;;;;;;5135294;27;20168;-56
2022/10/09 06:56:16;;;;;;;9.15;5.70;;;7.50;99.90;;;;;;5135094;27;20310;-55
2022/10/09 06:58:42;;;;;;;9.00;5.63;;;7.50;99.90;;;;;;5135093;27;20246;-55
2022/10/09 07:01:20;;;;;;;8.75;5.25;;;7.60;99.90;;;;;;5135070;27;20198;-56
2022/10/09 07:03:57;;;;;;;10.35;5.40;;;7.70;99.90;;;;;;5135183;27;20258;-57
2022/10/09 07:06:28;;;;;;;7.05;5.25;;;7.80;99.90;;;;;;5128232;27;20168;-55
2022/10/09 07:09:00;;;;;;;5.80;4.80;;;7.90;99.90;;;;;;5117150;27;20260;-54
2022/10/09 07:11:29;;;;;;;7.45;4.88;;;8.10;99.90;;;;;;5114806;28;20210;-55
2022/10/09 07:13:57;;;;;;;7.15;5.15;;;8.20;99.90;;;;;;5113194;28;20173;-56
2022/10/09 07:16:25;;;;;;;6.95;4.78;;;8.40;99.90;;;;;;5114556;28;20168;-56
2022/10/09 07:18:51;;;;;;;6.70;4.28;;;8.50;99.90;;;;;;5114224;28;20215;-55
2022/10/09 07:21:17;;;;;;;7.13;4.22;;;8.60;99.90;;;;;;5114388;28;20235;-56
2022/10/09 07:23:43;;;;;;;9.38;4.55;;;8.70;99.90;;;;;;5114097;27;20186;-55
2022/10/09 07:26:14;;;;;;;7.43;4.57;;;8.80;99.90;;;;;;5113995;28;20203;-55
2022/10/09 07:28:41;;;;;;;9.82;5.05;;;8.90;99.90;;;;;;5113914;28;20227;-55
2022/10/09 07:31:07;;;;;;;5.53;4.50;;;9.00;99.90;;;;;;5114045;28;20225;-56
2022/10/09 07:33:33;;;;;;;5.25;4.32;;;9.00;99.90;;;;;;5113392;28;20168;-56
2022/10/09 07:36:00;;;;;;;6.95;4.50;;;9.10;99.90;;;;;;5113103;28;20176;-55
2022/10/09 07:38:26;;;;;;;6.70;4.28;;;9.20;99.90;;;;;;5113556;28;20249;-54
2022/10/09 07:40:52;;;;;;;6.95;4.85;;;9.10;99.90;;;;;;5114102;28;20168;-55
2022/10/09 07:43:19;;;;;;;9.57;5.10;;;9.10;99.90;;;;;;5113690;28;20165;-55
2022/10/09 07:45:45;;;;;;;15.80;5.68;;;9.20;99.90;;;;;;5113745;28;20650;-55
2022/10/09 07:48:10;;;;;;;9.20;4.88;;;9.30;99.90;;;;;;5113697;28;20226;-55
2022/10/09 07:50:36;;;;;;;9.02;5.35;;;9.40;99.90;;;;;;5113488;28;20239;-55
2022/10/09 07:53:02;;;;;;;8.63;5.18;;;9.50;99.90;;;;;;5113573;28;20685;-55
2022/10/09 07:55:27;;;;;;;9.50;5.53;;;9.50;99.90;;;;;;5113285;28;20677;-55
2022/10/09 07:57:53;;;;;;;7.75;4.97;;;9.60;99.90;;;;;;5113719;28;20183;-54
2022/10/09 08:00:18;;;;;;;12.93;5.85;;;9.80;99.90;;;;;;5113314;28;20512;-54
2022/10/09 08:02:44;;;;;;;12.45;5.22;;;9.80;99.90;;;;;;5113243;28;20563;-55
2022/10/09 08:05:10;;;;;;;12.18;5.40;;;10.00;99.90;;;;;;5113288;28;20172;-54
2022/10/09 08:07:36;;;;;;;11.85;5.55;;;10.00;99.90;;;;;;5113030;28;20211;-55
2022/10/09 08:10:02;;;;;;;7.65;4.68;;;10.20;99.90;;;;;;5112927;27;20169;-55
2022/10/09 08:12:27;;;;;;;12.82;4.85;;;10.20;99.90;;;;;;5112580;28;20553;-54
2022/10/09 08:14:53;;;;;;;8.40;5.10;;;10.20;99.90;;;;;;5112197;27;20169;-55
2022/10/09 08:17:18;;;;;;;9.10;4.85;;;10.30;99.90;;;;;;5112393;28;20247;-54
2022/10/09 08:19:44;;;;;;;7.13;4.78;;;10.40;99.90;;;;;;5112412;28;20592;-54
2022/10/09 08:22:10;;;;;;;6.28;4.80;;;10.60;99.90;;;;;;5112311;28;20196;-54
2022/10/09 08:24:36;;;;;;;9.20;4.38;;;10.70;99.90;;;;;;5112546;28;20168;-54
2022/10/09 08:27:02;;;;;;;7.80;4.45;;;10.80;99.90;;;;;;5112339;28;20573;-54
2022/10/09 08:29:28;;;;;;;7.43;4.32;;;10.80;99.90;;;;;;5112757;28;20160;-55
2022/10/09 08:31:53;;;;;;;8.13;4.22;;;11.00;99.90;;;;;;5113190;28;20179;-54
2022/10/09 08:34:19;;;;;;;9.00;4.90;;;11.10;99.90;;;;;;5112703;28;20162;-54
2022/10/09 08:36:45;;;;;;;5.80;4.40;;;11.10;99.90;;;;;;5112545;28;20157;-54
2022/10/09 08:39:10;;;;;;;4.93;4.43;;;11.00;99.90;;;;;;5112669;28;20248;-54
2022/10/09 08:41:54;;;;;;;9.20;4.80;;;11.30;99.90;;;;;;5112388;28;20167;-54
2022/10/09 08:44:23;;;;;;;5.35;4.10;;;11.50;99.90;;;;;;5112299;28;20160;-55
2022/10/09 08:47:10;;;;;;;5.70;4.30;;;11.60;99.90;;;;;;5111756;28;20203;-54
2022/10/09 08:49:47;;;;;;;10.50;4.22;;;11.70;99.90;;;;;;5111690;28;20164;-55
2022/10/09 08:52:20;;;;;;;11.63;4.20;;;11.70;99.90;;;;;;5112119;28;20168;-55
2022/10/09 08:54:45;;;;;;;7.57;5.03;;;11.80;99.90;;;;;;5112214;28;20243;-55
2022/10/09 08:57:15;;;;;;;10.40;5.65;;;11.90;99.90;;;;;;5111098;28;20645;-55
2022/10/09 08:59:42;;;;;;;9.73;4.28;;;12.00;99.90;;;;;;5112376;28;20629;-56
2022/10/09 09:02:24;;;;;;;9.70;3.70;;;12.00;99.90;;;;;;5112356;28;20164;-56
2022/10/09 09:05:14;;;;;;;6.45;4.50;;;12.10;99.90;;;;;;5112274;28;20256;-56
2022/10/09 09:08:17;;;;;;;7.38;4.50;;;12.20;99.90;;;;;;5112206;28;20208;-56
2022/10/09 09:11:12;;;;;;;6.30;3.72;;;12.40;99.90;;;;;;5060831;28;20184;-56
2022/10/09 09:13:50;;;;;;;8.77;4.32;;;12.50;99.90;;;;;;5112078;28;20169;-56
2022/10/09 09:16:42;;;;;;;7.50;3.90;;;12.40;99.90;;;;;;5112238;28;20686;-55
2022/10/09 09:19:31;;;;;;;4.75;3.25;;;12.50;99.90;;;;;;5110904;28;20199;-56
2022/10/09 09:21:57;;;;;;;6.63;3.95;;;12.80;99.90;;;;;;5112168;28;20157;-55
2022/10/09 09:24:43;;;;;;;8.00;3.78;;;12.90;99.90;;;;;;5112525;28;20168;-56
2022/10/09 09:27:20;;;;;;;5.95;3.40;;;12.80;99.90;;;;;;5111639;28;20212;-57
2022/10/09 09:30:11;;;;;;;11.30;3.50;;;12.90;99.90;;;;;;5112104;28;20673;-56
2022/10/09 09:32:46;;;;;;;6.30;3.55;;;13.00;99.90;;;;;;5112080;28;20168;-54
2022/10/09 09:35:34;;;;;;;5.50;3.38;;;13.10;99.90;;;;;;5111987;28;20157;-54
2022/10/09 09:38:00;;;;;;;4.93;3.40;;;13.20;99.90;;;;;;5111952;28;20165;-54
2022/10/09 09:40:32;;;;;;;9.60;4.05;;;13.30;99.90;;;;;;5112002;28;20160;-55
2022/10/09 09:42:59;;;;;;;7.15;3.47;;;13.30;99.90;;;;;;5111882;28;20190;-55
2022/10/09 09:45:26;;;;;;;7.75;4.13;;;13.50;99.90;;;;;;5111829;28;20301;-54
2022/10/09 09:47:56;;;;;;;6.80;3.60;;;13.50;99.90;;;;;;5112171;28;20306;-54
2022/10/09 09:50:38;;;;;;;5.47;3.53;;;13.40;99.90;;;;;;5112163;28;20190;-54
2022/10/09 09:53:11;;;;;;;5.70;3.38;;;13.70;99.90;;;;;;5111417;28;20160;-55
2022/10/09 09:55:37;;;;;;;10.38;3.28;;;13.70;99.90;;;;;;5111201;28;20212;-55
2022/10/09 09:58:06;;;;;;;5.35;3.63;;;13.80;99.90;;;;;;5111238;28;20621;-54
2022/10/09 10:00:33;;;;;;;11.52;5.38;;;13.90;99.90;;;;;;5111401;28;20192;-55
2022/10/09 10:03:13;;;;;;;15.57;7.50;;;13.90;99.90;;;;;;5115292;28;20176;-55
2022/10/09 10:05:40;;;;;;;26.02;11.20;;;14.00;99.90;;;;;;5115009;28;20164;-55
2022/10/09 10:08:13;;;;;;;47.17;19.10;;;14.00;99.90;;;;;;5115164;27;20543;-55
2022/10/09 10:10:44;;;;;;;10.48;4.63;;;14.40;99.90;;;;;;5115248;28;20165;-55
2022/10/09 10:13:37;;;;;;;44.22;16.30;;;14.40;99.90;;;;;;5114935;28;20672;-55
2022/10/09 10:16:03;;;;;;;52.47;22.33;;;14.40;99.90;;;;;;5115294;28;20177;-55
2022/10/09 10:18:36;;;;;;;16.27;7.68;;;14.60;99.90;;;;;;5115335;28;20173;-56
2022/10/09 10:21:04;;;;;;;10.13;4.88;;;14.70;99.90;;;;;;5115217;28;20630;-55
2022/10/09 10:23:33;;;;;;;11.23;3.50;;;14.60;99.90;;;;;;5115170;28;20168;-55
2022/10/09 10:26:06;;;;;;;27.50;16.35;;;14.70;99.90;;;;;;5115164;28;20165;-56
2022/10/09 10:28:44;;;;;;;11.38;5.60;;;14.80;99.90;;;;;;5114962;28;20218;-55
2022/10/09 10:31:22;;;;;;;17.13;8.77;;;14.90;99.90;;;;;;5113877;28;20168;-56
2022/10/09 10:33:55;;;;;;;9.27;5.63;;;15.00;99.90;;;;;;5114844;28;20165;-57
2022/10/09 10:36:21;;;;;;;13.95;7.60;;;15.00;99.90;;;;;;5114721;28;20206;-56
2022/10/09 10:39:03;;;;;;;8.40;3.25;;;15.20;99.90;;;;;;5114726;28;20533;-57
2022/10/09 10:41:37;;;;;;;13.57;7.50;;;15.20;99.90;;;;;;5113339;28;20171;-56
2022/10/09 10:44:12;;;;;;;13.82;7.70;;;15.20;99.90;;;;;;5114125;28;20626;-56
2022/10/09 10:46:48;;;;;;;28.60;16.73;;;15.30;99.90;;;;;;5114087;28;20502;-56
2022/10/09 10:49:20;;;;;;;10.93;4.43;;;15.40;99.90;;;;;;5114576;28;20165;-56
2022/10/09 10:51:59;;;;;;;16.58;9.50;;;15.50;99.90;;;;;;5114020;28;20177;-55
2022/10/09 10:54:52;;;;;;;10.32;3.88;;;15.60;99.90;;;;;;5115109;28;20169;-55
2022/10/09 10:57:29;;;;;;;14.73;6.55;;;15.60;99.90;;;;;;5114565;28;20181;-55
2022/10/09 11:00:05;;;;;;;13.98;6.43;;;15.80;99.90;;;;;;5114849;28;20171;-55
2022/10/09 11:02:58;;;;;;;6.95;2.85;;;16.00;99.90;;;;;;5114778;28;20309;-54
2022/10/09 11:05:26;;;;;;;6.95;3.20;;;16.00;99.90;;;;;;5114938;28;20585;-56
2022/10/09 11:07:55;;;;;;;11.52;4.75;;;15.90;99.90;;;;;;5114698;28;20200;-57
2022/10/09 11:10:39;;;;;;;12.10;4.35;;;16.00;99.90;;;;;;5114384;28;20184;-57
2022/10/09 11:13:38;;;;;;;18.58;5.70;;;16.00;99.90;;;;;;5113479;28;20168;-57
2022/10/09 11:16:37;;;;;;;8.25;4.05;;;16.10;99.90;;;;;;5114582;27;20160;-55
2022/10/09 11:19:46;;;;;;;15.30;8.63;;;16.10;99.90;;;;;;5114268;28;20168;-55
2022/10/09 11:22:11;;;;;;;17.08;8.45;;;16.20;99.90;;;;;;5084693;28;20694;-56
2022/10/09 11:24:56;;;;;;;13.73;6.32;;;16.40;99.90;;;;;;5114097;28;20172;-55
2022/10/09 11:27:43;;;;;;;15.32;8.18;;;16.60;99.90;;;;;;5113620;28;20192;-56
2022/10/09 11:30:11;;;;;;;9.77;5.78;;;16.60;99.90;;;;;;5113779;28;20165;-57
2022/10/09 11:32:58;;;;;;;8.57;4.03;;;16.50;99.90;;;;;;5113698;28;20173;-57
2022/10/09 11:35:28;;;;;;;6.32;4.03;;;16.50;99.90;;;;;;5113982;27;20525;-56
2022/10/09 11:38:15;;;;;;;5.68;3.60;;;16.60;99.90;;;;;;5113940;28;20161;-57
2022/10/09 11:40:42;;;;;;;6.85;2.97;;;16.60;99.90;;;;;;5113295;28;20495;-57
2022/10/09 11:43:26;;;;;;;6.18;2.47;;;16.60;99.90;;;;;;5113526;28;20214;-57
2022/10/09 11:45:57;;;;;;;5.90;2.53;;;16.80;99.90;;;;;;5113808;28;20165;-57
2022/10/09 11:48:26;;;;;;;8.05;2.00;;;16.80;99.90;;;;;;5113948;28;21012;-57
2022/10/09 11:51:23;;;;;;;4.72;1.95;;;16.90;99.90;;;;;;5113473;28;20549;-57
2022/10/09 11:53:51;;;;;;;6.20;2.33;;;16.90;99.90;;;;;;5108536;28;20185;-57
2022/10/09 11:56:26;;;;;;;4.78;1.60;;;16.90;99.90;;;;;;5112772;28;20215;-57
2022/10/09 11:59:03;;;;;;;6.55;1.83;;;17.00;99.90;;;;;;5113520;28;20175;-57
2022/10/09 12:01:37;;;;;;;5.13;1.67;;;17.10;99.90;;;;;;5125472;27;20167;-57
2022/10/09 12:04:12;;;;;;;3.50;1.48;;;16.80;99.90;;;;;;5133757;27;20183;-57
2022/10/09 12:07:08;;;;;;;3.83;1.60;;;16.90;99.90;;;;;;5133237;27;20222;-57
2022/10/09 12:09:42;;;;;;;2.63;1.58;;;17.10;99.90;;;;;;5133470;27;20202;-57
2022/10/09 12:12:24;;;;;;;4.50;2.17;;;17.20;99.90;;;;;;5132113;27;20268;-56
2022/10/09 12:14:51;;;;;;;4.60;2.13;;;17.20;99.90;;;;;;5133832;27;20291;-57
2022/10/09 12:17:23;;;;;;;4.50;1.83;;;17.30;99.90;;;;;;5133372;27;20167;-57
2022/10/09 12:19:59;;;;;;;5.05;1.70;;;17.20;99.90;;;;;;5133346;27;20168;-57
2022/10/09 12:22:34;;;;;;;5.13;1.80;;;17.30;99.90;;;;;;5133316;27;20648;-56
2022/10/09 12:25:07;;;;;;;4.22;1.65;;;17.20;99.90;;;;;;5132782;27;20277;-57
2022/10/09 12:27:48;;;;;;;6.78;1.85;;;17.30;99.90;;;;;;5131721;27;20312;-57
2022/10/09 12:30:17;;;;;;;2.38;1.70;;;17.30;99.90;;;;;;5133216;27;20168;-57
2022/10/09 12:33:05;;;;;;;4.97;2.05;;;17.20;99.90;;;;;;5132986;27;20641;-57
2022/10/09 12:35:36;;;;;;;1.90;1.33;;;17.20;99.90;;;;;;5133054;27;20648;-58
2022/10/09 12:38:24;;;;;;;2.78;1.50;;;17.10;99.90;;;;;;5131678;27;20175;-56
2022/10/09 12:40:51;;;;;;;3.70;1.73;;;17.10;99.90;;;;;;5132809;27;20168;-57
2022/10/09 12:43:21;;;;;;;4.78;1.50;;;17.20;99.90;;;;;;5132719;27;20554;-56
2022/10/09 12:45:49;;;;;;;3.65;1.45;;;17.20;99.90;;;;;;5133040;27;20187;-56
2022/10/09 12:48:21;;;;;;;5.70;1.55;;;17.30;99.90;;;;;;5132902;27;20211;-56
2022/10/09 12:50:48;;;;;;;4.85;1.65;;;17.10;99.90;;;;;;5133034;27;20688;-57
2022/10/09 12:53:16;;;;;;;1.85;1.52;;;17.20;99.90;;;;;;5133030;27;20168;-56
2022/10/09 12:55:45;;;;;;;3.95;1.42;;;17.20;99.90;;;;;;5132489;27;20614;-56
2022/10/09 12:58:24;;;;;;;2.63;1.50;;;17.10;99.90;;;;;;5132879;27;20164;-56
2022/10/09 13:00:54;;;;;;;3.55;1.50;;;17.20;99.90;;;;;;5133435;27;20189;-57
2022/10/09 13:03:32;;;;;;;2.72;1.50;;;17.20;99.90;;;;;;5133173;27;20260;-57
2022/10/09 13:05:58;;;;;;;2.85;1.50;;;17.20;99.90;;;;;;5132676;27;20663;-56
2022/10/09 13:08:31;;;;;;;5.88;1.80;;;17.30;99.90;;;;;;5132636;27;20211;-56